Dades meteomassalio
Diari Summary for Maig 17, 2017 Units:  Metric    English   Both
« Previous Day
Next Day »
Diari Semanal Mensual Anual Personalitzat
  Maxima: Minima: Mijana:
Temperatura: -17.8 °C -12.1 °C -6.1 °C
Rosada: -17.8 °C -15.5 °C -13.2 °C
Humitat: Humidity % 20 % 46 %
Velocitat del vent: 0 km/h 0 km/h 12.6 km/h
Racha vent: 0 km/h - -
Vent:- - SE
Pressio: 0 hPa 34337.4 hPa -
Pluja: 0 mm    
Historical Graphs
 
 
Tabular Data for Maig 17, 2017
Time Temperature Dew Point Pressure Wind Wind Speed Wind Gust Humidity Rainfall Rate (Hourly) solar Conditions
-17.8 °C -17.8 °C 0 hPa Calm     Humidity % 0 mm SolarRadiationWatts/m^2 W/m2 Conditions
00:02 -6 °C -13.9 °C 34611.7 hPa Calm     40 % 0 mm 0.0 W/m2 CLR
00:07 -6.1 °C -13.9 °C 34625.2 hPa Calm     40 % 0 mm 0.0 W/m2 CLR
00:12 -6.2 °C -13.8 °C 34611.7 hPa Calm     41 % 0 mm 0.0 W/m2 CLR
00:17 -6.3 °C -13.7 °C 34611.7 hPa Calm     42 % 0 mm 0.0 W/m2 CLR
00:18 -6.3 °C -13.7 °C 34611.7 hPa Calm     42 % 0 mm 0.0 W/m2 CLR
00:23 -6.4 °C -13.7 °C 34611.7 hPa Calm     43 % 0 mm 0.0 W/m2 CLR
00:28 -6.6 °C -13.8 °C 34611.7 hPa Calm     43 % 0 mm 0.0 W/m2 CLR
00:33 -6.7 °C -13.8 °C 34611.7 hPa Calm     43 % 0 mm 0.0 W/m2 CLR
00:38 -6.7 °C -13.9 °C 34611.7 hPa Calm     43 % 0 mm 0.0 W/m2 CLR
00:43 -6.8 °C -13.4 °C 34611.7 hPa Calm     46 % 0 mm 0.0 W/m2 CLR
00:48 -7.1 °C -13.7 °C 34611.7 hPa Calm     46 % 0 mm 0.0 W/m2 CLR
00:53 -7.2 °C -13.8 °C 34611.7 hPa Calm     46 % 0 mm 0.0 W/m2 CLR
00:58 -7.3 °C -13.9 °C 34611.7 hPa Calm     46 % 0 mm 0.0 W/m2 CLR
01:03 -7.4 °C -13.8 °C 34611.7 hPa Calm     47 % 0 mm 0.0 W/m2 CLR
01:08 -7.4 °C -13.8 °C 34611.7 hPa Calm     47 % 0 mm 0.0 W/m2 CLR
01:13 -7.6 °C -13.8 °C 34611.7 hPa Calm     48 % 0 mm 0.0 W/m2 CLR
01:18 -7.7 °C -13.8 °C 34611.7 hPa Calm     49 % 0 mm 0.0 W/m2 CLR
01:23 -7.9 °C -13.7 °C 34611.7 hPa Calm     50 % 0 mm 0.0 W/m2 CLR
01:28 -8.1 °C -13.8 °C 34611.7 hPa Calm     51 % 0 mm 0.0 W/m2 CLR
01:33 -8.2 °C -14 °C 34611.7 hPa Calm     50 % 0 mm 0.0 W/m2 CLR
01:38 -8.2 °C -14.2 °C 34611.7 hPa Calm     49 % 0 mm 0.0 W/m2 CLR
01:43 -8.2 °C -14.2 °C 34611.7 hPa Calm     49 % 0 mm 0.0 W/m2 CLR
01:48 -8.2 °C -14.4 °C 34611.7 hPa Calm     48 % 0 mm 0.0 W/m2 CLR
01:53 -8.2 °C -14.3 °C 34611.7 hPa Calm     48 % 0 mm 0.0 W/m2 CLR
01:58 -8.2 °C -14.6 °C 34601.5 hPa Calm     47 % 0 mm 0.0 W/m2 CLR
02:03 -8.2 °C -14.6 °C 34611.7 hPa Calm     47 % 0 mm 0.0 W/m2 CLR
02:08 -8.2 °C -14.2 °C 34601.5 hPa Calm     49 % 0 mm 0.0 W/m2 CLR
02:13 -8.3 °C -14.5 °C 34601.5 hPa Calm     48 % 0 mm 0.0 W/m2 CLR
02:18 -8.4 °C -13.9 °C 34601.5 hPa Calm     52 % 0 mm 0.0 W/m2 CLR
02:23 -8.6 °C -13.8 °C 34601.5 hPa Calm     54 % 0 mm 0.0 W/m2 CLR
02:28 -8.8 °C -13.9 °C 34601.5 hPa Calm     54 % 0 mm 0.0 W/m2 CLR
02:33 -8.9 °C -14.1 °C 34601.5 hPa Calm     54 % 0 mm 0.0 W/m2 CLR
02:38 -9.1 °C -14.1 °C 34601.5 hPa Calm     55 % 0 mm 0.0 W/m2 CLR
02:43 -9.3 °C -14 °C 34601.5 hPa Calm     57 % 0 mm 0.0 W/m2 CLR
02:48 -9.4 °C -14 °C 34601.5 hPa Calm     58 % 0 mm 0.0 W/m2 CLR
02:53 -9.6 °C -13.9 °C 34601.5 hPa Calm     59 % 0 mm 0.0 W/m2 CLR
02:58 -9.7 °C -14.1 °C 34601.5 hPa Calm     59 % 0 mm 0.0 W/m2 CLR
03:03 -9.7 °C -14 °C 34601.5 hPa Calm     60 % 0 mm 0.0 W/m2 CLR
03:08 -9.8 °C -13.9 °C 34601.5 hPa Calm     61 % 0 mm 0.0 W/m2 CLR
03:13 -9.9 °C -14.1 °C 34591.4 hPa Calm     60 % 0 mm 0.0 W/m2 CLR
03:18 -10 °C -14.1 °C 34591.4 hPa Calm     61 % 0 mm 0.0 W/m2 CLR
03:23 -10.1 °C -14.1 °C 34591.4 hPa Calm     62 % 0 mm 0.0 W/m2 CLR
03:28 -10.2 °C -14 °C 34591.4 hPa Calm     63 % 0 mm 0.0 W/m2 CLR
03:33 -10.2 °C -14.1 °C 34591.4 hPa Calm     63 % 0 mm 0.0 W/m2 CLR
03:38 -10.3 °C -14.1 °C 34577.8 hPa Calm     63 % 0 mm 0.0 W/m2 CLR
03:43 -10.3 °C -14.2 °C 34577.8 hPa Calm     63 % 0 mm 0.0 W/m2 CLR
03:48 -10.4 °C -14.1 °C 34577.8 hPa Calm     64 % 0 mm 0.0 W/m2 CLR
03:53 -10.4 °C -14.2 °C 34577.8 hPa Calm     64 % 0 mm 0.0 W/m2 CLR
03:58 -10.5 °C -14.2 °C 34577.8 hPa Calm     64 % 0 mm 0.0 W/m2 CLR
04:03 -10.5 °C -14.2 °C 34577.8 hPa Calm     64 % 0 mm 0.0 W/m2 CLR
04:08 -10.5 °C -14.1 °C 34577.8 hPa Calm     65 % 0 mm 0.0 W/m2 CLR
04:13 -10.7 °C -14.2 °C 34577.8 hPa Calm     65 % 0 mm 0.0 W/m2 CLR
04:18 -10.7 °C -14.2 °C 34577.8 hPa Calm     66 % 0 mm 0.0 W/m2 CLR
04:23 -10.7 °C -14.2 °C 34577.8 hPa Calm     66 % 0 mm 0.0 W/m2 CLR
04:28 -10.8 °C -14.3 °C 34577.8 hPa Calm     65 % 0 mm 0.0 W/m2 CLR
04:33 -10.8 °C -14.3 °C 34577.8 hPa Calm     66 % 0 mm 0.0 W/m2 CLR
04:38 -10.9 °C -14.3 °C 34577.8 hPa Calm     66 % 0 mm 0.0 W/m2 CLR
04:43 -10.9 °C -14.3 °C 34577.8 hPa Calm     66 % 0 mm 0.0 W/m2 CLR
04:48 -11 °C -14.3 °C 34577.8 hPa Calm     67 % 0 mm 0.0 W/m2 CLR
04:53 -11.1 °C -14.3 °C 34567.7 hPa Calm     67 % 0 mm 0.0 W/m2 CLR
04:54 -11.1 °C -14.4 °C 34567.7 hPa Calm     67 % 0 mm 0.0 W/m2 CLR
04:59 -11.2 °C -14.3 °C 34567.7 hPa Calm     68 % 0 mm 0.0 W/m2 CLR
05:04 -11.2 °C -14.3 °C 34567.7 hPa Calm     68 % 0 mm 0.0 W/m2 CLR
05:09 -11.2 °C -14.4 °C 34567.7 hPa Calm     68 % 0 mm 0.0 W/m2 CLR
05:14 -11.3 °C -14.4 °C 34567.7 hPa Calm     68 % 0 mm 0.0 W/m2 CLR
05:19 -11.3 °C -14.5 °C 34567.7 hPa Calm     68 % 0 mm 0.0 W/m2 CLR
05:24 -11.3 °C -14.4 °C 34567.7 hPa Calm     69 % 0 mm 0.0 W/m2 CLR
05:29 -11.4 °C -14.4 °C 34567.7 hPa Calm     69 % 0 mm 0.0 W/m2 CLR
05:34 -11.4 °C -14.5 °C 34567.7 hPa Calm     69 % 0 mm 0.0 W/m2 CLR
05:39 -11.5 °C -14.6 °C 34567.7 hPa Calm     69 % 0 mm 0.0 W/m2 CLR
05:44 -11.6 °C -14.5 °C 34567.7 hPa Calm     70 % 0 mm 0.0 W/m2 CLR
05:49 -11.6 °C -14.6 °C 34567.7 hPa Calm     70 % 0 mm 0.0 W/m2 CLR
05:54 -11.6 °C -14.6 °C 34567.7 hPa Calm     70 % 0 mm 0.0 W/m2 CLR
05:59 -11.7 °C -14.6 °C 34567.7 hPa Calm     70 % 0 mm 0.0 W/m2 CLR
06:04 -11.7 °C -14.7 °C 34567.7 hPa Calm     70 % 0 mm 0.0 W/m2 CLR
06:09 -11.8 °C -14.6 °C 34567.7 hPa Calm     71 % 0 mm 0.0 W/m2 CLR
06:14 -11.8 °C -14.6 °C 34567.7 hPa Calm     71 % 0 mm 0.0 W/m2 CLR
06:19 -11.8 °C -14.6 °C 34567.7 hPa Calm     71 % 0 mm 0.0 W/m2 CLR
06:24 -11.8 °C -14.8 °C 34577.8 hPa Calm     70 % 0 mm 0.0 W/m2 CLR
06:29 -11.8 °C -14.8 °C 34567.7 hPa Calm     70 % 0 mm 0.0 W/m2 OVC
06:34 -11.9 °C -14.8 °C 34567.7 hPa Calm     70 % 0 mm 5.0 W/m2 OVC
06:39 -11.9 °C -14.8 °C 34567.7 hPa Calm     70 % 0 mm 5.0 W/m2 OVC
06:44 -11.9 °C -14.8 °C 34567.7 hPa Calm     70 % 0 mm 7.0 W/m2 BKN
06:49 -12 °C -14.8 °C 34567.7 hPa Calm     71 % 0 mm 12.0 W/m2 BKN
06:54 -12 °C -14.9 °C 34567.7 hPa Calm     70 % 0 mm 18.0 W/m2 BKN
06:59 -12 °C -14.8 °C 34567.7 hPa Calm     71 % 0 mm 23.0 W/m2 BKN
07:04 -12.1 °C -14.8 °C 34567.7 hPa Calm     71 % 0 mm 28.0 W/m2 BKN
07:09 -12 °C -14.8 °C 34567.7 hPa Calm     71 % 0 mm 30.0 W/m2 BKN
07:14 -11.9 °C -14.8 °C 34567.7 hPa Calm     70 % 0 mm 33.0 W/m2 BKN
07:19 -11.9 °C -14.9 °C 34567.7 hPa Calm     69 % 0 mm 39.0 W/m2 BKN
07:24 -11.8 °C -14.8 °C 34567.7 hPa Calm     69 % 0 mm 40.0 W/m2 BKN
07:29 -11.7 °C -14.8 °C 34567.7 hPa Calm     68 % 0 mm 54.0 W/m2 SCT
07:34 -11.6 °C -14.7 °C 34554.1 hPa Calm     68 % 0 mm 69.0 W/m2 FEW
07:39 -11.4 °C -14.7 °C 34567.7 hPa Calm     67 % 0 mm 76.0 W/m2 FEW
07:44 -11.3 °C -14.7 °C 34567.7 hPa Calm     67 % 0 mm 100.0 W/m2 FEW
07:49 -11.2 °C -14.7 °C 34567.7 hPa Calm     66 % 0 mm 120.0 W/m2 CLR
07:54 -11.1 °C -14.5 °C 34567.7 hPa Calm     66 % 0 mm 132.0 W/m2 CLR
07:59 -10.8 °C -14.2 °C 34567.7 hPa Calm     66 % 0 mm 163.0 W/m2 CLR
08:04 -10.6 °C -14.3 °C 34554.1 hPa Calm     64 % 0 mm 179.0 W/m2 CLR
08:09 -10.3 °C -14.4 °C 34554.1 hPa Calm     61 % 0 mm 209.0 W/m2 CLR
08:14 -10.1 °C -14.2 °C 34554.1 hPa Calm     61 % 0 mm 216.0 W/m2 CLR
08:19 -9.9 °C -14.1 °C 34554.1 hPa Calm     60 % 0 mm 251.0 W/m2 CLR
08:24 -9.6 °C -14 °C 34554.1 hPa Calm     59 % 0 mm 269.0 W/m2 CLR
08:30 -9.3 °C -13.9 °C 34554.1 hPa Calm     58 % 0 mm 288.0 W/m2 CLR
08:35 -9.1 °C -13.8 °C 34554.1 hPa Calm     57 % 0 mm 290.0 W/m2 CLR
08:40 -8.8 °C -13.7 °C 34554.1 hPa Calm     56 % 0 mm 294.0 W/m2 CLR
08:45 -8.4 °C -13.5 °C 34554.1 hPa Calm     55 % 0 mm 257.0 W/m2 CLR
08:50 -8.2 °C -13.4 °C 34554.1 hPa Calm     54 % 0 mm 364.0 W/m2 CLR
08:55 -7.9 °C -13 °C 34554.1 hPa Calm     55 % 0 mm 345.0 W/m2 CLR
09:00 -7.7 °C -12.2 °C 34554.1 hPa Calm     59 % 0 mm 371.0 W/m2 CLR
09:05 -7.3 °C -12.3 °C 34554.1 hPa Calm     56 % 0 mm 387.0 W/m2 CLR
09:10 -6.9 °C -12.1 °C 34554.1 hPa Calm     55 % 0 mm 387.0 W/m2 CLR
09:15 -6.6 °C -12.1 °C 34544 hPa Calm     53 % 0 mm 397.0 W/m2 CLR
09:20 -6.3 °C -11.5 °C 34544 hPa Calm     55 % 0 mm 357.0 W/m2 CLR
09:25 -6.2 °C -11.4 °C 34544 hPa Calm     55 % 0 mm 480.0 W/m2 CLR
09:30 -6 °C -11.2 °C 34544 hPa Calm     55 % 0 mm 374.0 W/m2 CLR
09:35 -5.9 °C -11.3 °C 34533.8 hPa NE 3.1 km/h   54 % 0 mm 278.0 W/m2 CLR
09:37 -5.9 °C -11.3 °C 34544 hPa Calm     54 % 0 mm 299.0 W/m2 CLR
09:42 -5.9 °C -11.3 °C 34533.8 hPa Calm     54 % 0 mm 316.0 W/m2 CLR
09:47 -5.8 °C -11.1 °C 34533.8 hPa Calm     55 % 0 mm 292.0 W/m2 CLR
09:52 -5.7 °C -10.8 °C 34533.8 hPa Calm     56 % 0 mm 311.0 W/m2 CLR
09:57 -5.4 °C -10.7 °C 34533.8 hPa Calm     55 % 0 mm 334.0 W/m2 CLR
10:02 -5.3 °C -10.8 °C 34533.8 hPa Calm     54 % 0 mm 376.0 W/m2 CLR
10:07 -5.2 °C -10.7 °C 34533.8 hPa Calm     53 % 0 mm 517.0 W/m2 CLR
10:12 -4.9 °C -10.7 °C 34533.8 hPa Calm     52 % 0 mm 533.0 W/m2 CLR
10:17 -4.8 °C -10.7 °C 34533.8 hPa ENE 11.9 km/h 11.9 km/h 51 % 0 mm 554.0 W/m2 CLR
10:22 -4.6 °C -10.7 °C 34520.3 hPa ENE 12.9 km/h 12.9 km/h 50 % 0 mm 633.0 W/m2 CLR
10:27 -4.3 °C -11 °C 34520.3 hPa ENE 9 km/h   47 % 0 mm 612.0 W/m2 CLR
10:32 -4.2 °C -12 °C 34520.3 hPa ESE 12.9 km/h 12.9 km/h 41 % 0 mm 591.0 W/m2 CLR
10:37 -4.2 °C -12.2 °C 34520.3 hPa Calm     40 % 0 mm 694.0 W/m2 CLR
10:42 -4.1 °C -11.3 °C 34520.3 hPa East 7.7 km/h 7.7 km/h 44 % 0 mm 677.0 W/m2 CLR
10:47 -3.8 °C -11.5 °C 34520.3 hPa ENE 11.9 km/h 11.9 km/h 42 % 0 mm 675.0 W/m2 CLR
10:52 -3.7 °C -11.6 °C 34520.3 hPa Calm   3.7 km/h 41 % 0 mm 330.0 W/m2 CLR
10:57 -3.8 °C -12.1 °C 34510.1 hPa ESE 10.3 km/h 10.3 km/h 39 % 0 mm 295.0 W/m2 CLR
11:02 -3.9 °C -12.2 °C 34510.1 hPa ENE 10.3 km/h 10.3 km/h 39 % 0 mm 350.0 W/m2 CLR
11:07 -3.8 °C -12.1 °C 34510.1 hPa ENE 15 km/h 15 km/h 39 % 0 mm 691.0 W/m2 CLR
11:12 -3.7 °C -12 °C 34510.1 hPa East 23.8 km/h 23.8 km/h 39 % 0 mm 791.0 W/m2 CLR
11:17 -3.6 °C -11.9 °C 34510.1 hPa East 17.9 km/h 17.9 km/h 39 % 0 mm 645.0 W/m2 CLR
11:22 -3.7 °C -12.4 °C 34510.1 hPa ESE 15.6 km/h 15.6 km/h 37 % 0 mm 489.0 W/m2 CLR
11:27 -3.6 °C -12.8 °C 34496.6 hPa ESE 15.6 km/h 15.6 km/h 35 % 0 mm 522.0 W/m2 CLR
11:32 -3.5 °C -12.5 °C 34496.6 hPa East 9 km/h 9 km/h 36 % 0 mm 621.0 W/m2 CLR
11:37 -3.3 °C -12.3 °C 34496.6 hPa East 15.6 km/h 15.6 km/h 36 % 0 mm 585.0 W/m2 CLR
11:42 -3.3 °C -12.6 °C 34496.6 hPa ESE 15.6 km/h 15.6 km/h 35 % 0 mm 605.0 W/m2 CLR
11:47 -3.2 °C -12.7 °C 34496.6 hPa ESE 26.9 km/h 26.9 km/h 34 % 0 mm 663.0 W/m2 CLR
11:52 -3.2 °C -13 °C 34486.4 hPa SE 23.8 km/h 23.8 km/h 33 % 0 mm 591.0 W/m2 CLR
11:57 -3.3 °C -12.6 °C 34486.4 hPa East 15 km/h 15 km/h 35 % 0 mm 550.0 W/m2 CLR
12:02 -3.2 °C -12.4 °C 34486.4 hPa SE 18.2 km/h 18.2 km/h 35 % 0 mm 684.0 W/m2 CLR
12:07 -3.2 °C -12.7 °C 34486.4 hPa ESE 26.9 km/h 26.9 km/h 34 % 0 mm 682.0 W/m2 CLR
12:12 -3.1 °C -12.1 °C 34486.4 hPa East 23.8 km/h 23.8 km/h 36 % 0 mm 870.0 W/m2 CLR
12:17 -2.9 °C -12.4 °C 34486.4 hPa East 17.9 km/h 17.9 km/h 34 % 0 mm 381.0 W/m2 CLR
12:22 -2.9 °C -12.5 °C 34486.4 hPa ENE 12.9 km/h 12.9 km/h 34 % 0 mm 1164.0 W/m2 CLR
12:27 -2.8 °C -12.3 °C 34476.3 hPa East 15 km/h 15 km/h 34 % 0 mm 1194.0 W/m2 CLR
12:32 -2.5 °C -11.8 °C 34476.3 hPa ENE 15.6 km/h 15.6 km/h 35 % 0 mm 1039.0 W/m2 CLR
12:37 -2.3 °C -11.4 °C 34476.3 hPa NE 25.9 km/h 25.9 km/h 36 % 0 mm 1134.0 W/m2 CLR
12:42 -2.1 °C -12 °C 34476.3 hPa ENE 26.9 km/h 26.9 km/h 33 % 0 mm 1146.0 W/m2 CLR
12:47 -2.2 °C -12.3 °C 34476.3 hPa ESE 12.9 km/h 12.9 km/h 32 % 0 mm 448.0 W/m2 CLR
12:52 -2.7 °C -11.8 °C 34476.3 hPa ESE 20.9 km/h 20.9 km/h 36 % 0 mm 404.0 W/m2 CLR
12:57 -2.9 °C -11.7 °C 34462.7 hPa ENE 20.8 km/h 20.8 km/h 37 % 0 mm 404.0 W/m2 CLR
13:02 -2.8 °C -11.4 °C 34462.7 hPa ENE 26.9 km/h 26.9 km/h 38 % 0 mm 469.0 W/m2 CLR
13:07 -3.1 °C -10.8 °C 34452.6 hPa ENE 23.8 km/h 23.8 km/h 42 % 0 mm 348.0 W/m2 CLR
13:12 -2.9 °C -10.5 °C 34452.6 hPa East 26.9 km/h 26.9 km/h 43 % 0 mm 267.0 W/m2 CLR
13:17 -2.9 °C -10.4 °C 34452.6 hPa ENE 25.9 km/h 25.9 km/h 43 % 0 mm 988.0 W/m2 CLR
13:22 -2.8 °C -11 °C 34452.6 hPa East 20.9 km/h 20.9 km/h 40 % 0 mm 974.0 W/m2 CLR
13:27 -2.6 °C -10.6 °C 34442.4 hPa ENE 29.8 km/h 29.8 km/h 41 % 0 mm 795.0 W/m2 CLR
13:32 -2.4 °C -11.3 °C 34442.4 hPa ENE 35.7 km/h 35.7 km/h 37 % 0 mm 700.0 W/m2 CLR
13:37 -2.2 °C -11.3 °C 34442.4 hPa NNE 6 km/h 6 km/h 36 % 0 mm 895.0 W/m2 CLR
13:42 -1.8 °C -13.1 °C 34442.4 hPa South 38.8 km/h 38.8 km/h 28 % 0 mm 928.0 W/m2 CLR
13:47 -1.7 °C -14.2 °C 34428.8 hPa SW 17.9 km/h 17.9 km/h 24 % 0 mm 947.0 W/m2 CLR
13:52 -1.6 °C -14.6 °C 34428.8 hPa South 32.8 km/h 32.8 km/h 23 % 0 mm 954.0 W/m2 CLR
13:57 -1.8 °C -14.3 °C 34428.8 hPa ESE 38.8 km/h 38.8 km/h 24 % 0 mm 969.0 W/m2 CLR
14:02 -1.7 °C -14.3 °C 34428.8 hPa South 35.7 km/h 35.7 km/h 24 % 0 mm 962.0 W/m2 CLR
14:07 -1.6 °C -14.2 °C 34428.8 hPa SE 36.2 km/h 36.2 km/h 24 % 0 mm 942.0 W/m2 CLR
14:12 -1.6 °C -14.6 °C 34418.7 hPa South 29.8 km/h 29.8 km/h 23 % 0 mm 904.0 W/m2 CLR
14:17 -1.6 °C -15.2 °C 34418.7 hPa SSW 20.9 km/h 20.9 km/h 21 % 0 mm 937.0 W/m2 CLR
14:22 -1.3 °C -15.4 °C 34428.8 hPa SW 41.7 km/h 41.7 km/h 20 % 0 mm 925.0 W/m2 CLR
14:27 -1.4 °C -15.5 °C 34418.7 hPa South 15.6 km/h 15.6 km/h 20 % 0 mm 926.0 W/m2 CLR
14:32 -1.4 °C -15.1 °C 34418.7 hPa SSE 26.9 km/h 26.9 km/h 21 % 0 mm 919.0 W/m2 CLR
14:37 -1.2 °C -14.9 °C 34418.7 hPa SSW 33.6 km/h 33.6 km/h 21 % 0 mm 868.0 W/m2 CLR
14:42 -1.3 °C -15.4 °C 34418.7 hPa South 17.9 km/h 17.9 km/h 20 % 0 mm 819.0 W/m2 CLR
14:47 -1.4 °C -15.4 °C 34418.7 hPa South 18.2 km/h 18.2 km/h 20 % 0 mm 810.0 W/m2 CLR
14:52 -1.4 °C -14.4 °C 34418.7 hPa SSW 23.8 km/h 23.8 km/h 23 % 0 mm 788.0 W/m2 CLR
14:57 -1.4 °C -14.4 °C 34405.1 hPa South 26.9 km/h 26.9 km/h 23 % 0 mm 738.0 W/m2 CLR
15:02 -1.6 °C -13.8 °C 34405.1 hPa South 29.8 km/h 29.8 km/h 25 % 0 mm 613.0 W/m2 CLR
15:07 -1.7 °C -13.9 °C 34405.1 hPa South 38.8 km/h 38.8 km/h 25 % 0 mm 577.0 W/m2 CLR
15:12 -1.7 °C -13 °C 34405.1 hPa South 47.6 km/h 47.6 km/h 28 % 0 mm 577.0 W/m2 CLR
15:17 -2 °C -13 °C 34405.1 hPa South 29.8 km/h 29.8 km/h 29 % 0 mm 524.0 W/m2 CLR
15:22 -2.1 °C -12.4 °C 34405.1 hPa South 41.7 km/h 41.7 km/h 31 % 0 mm 527.0 W/m2 CLR
15:27 -2.1 °C -12.4 °C 34405.1 hPa SE 41.4 km/h 41.4 km/h 31 % 0 mm 473.0 W/m2 CLR
15:32 -2.2 °C -12.6 °C 34405.1 hPa SSE 41.7 km/h 41.7 km/h 31 % 0 mm 443.0 W/m2 CLR
15:37 -2.6 °C -12.6 °C 34405.1 hPa SE 50.7 km/h 50.7 km/h 32 % 0 mm 417.0 W/m2 CLR
15:43 -2.6 °C -12.4 °C 34405.1 hPa South 41.4 km/h 41.4 km/h 33 % 0 mm 404.0 W/m2 CLR
15:48 -2.6 °C -12.7 °C 34395 hPa South 32.8 km/h 32.8 km/h 32 % 0 mm 403.0 W/m2 CLR
15:53 -2.6 °C -12.7 °C 34395 hPa South 50.7 km/h 50.7 km/h 32 % 0 mm 390.0 W/m2 CLR
15:58 -2.6 °C -12.9 °C 34395 hPa SE 29.8 km/h 29.8 km/h 31 % 0 mm 388.0 W/m2 CLR
16:03 -2.6 °C -12.7 °C 34384.8 hPa South 44.7 km/h 44.7 km/h 32 % 0 mm 401.0 W/m2 CLR
16:08 -2.7 °C -12.8 °C 34395 hPa SE 38.8 km/h 38.8 km/h 32 % 0 mm 404.0 W/m2 CLR
16:13 -2.7 °C -12.8 °C 34395 hPa SE 47.6 km/h 47.6 km/h 32 % 0 mm 399.0 W/m2 CLR
16:18 -2.8 °C -12.9 °C 34395 hPa South 44.7 km/h 44.7 km/h 32 % 0 mm 381.0 W/m2 CLR
16:23 -2.7 °C -12.6 °C 34395 hPa South 26.9 km/h 26.9 km/h 33 % 0 mm 367.0 W/m2 CLR
16:28 -2.8 °C -12.6 °C 34384.8 hPa SE 26.9 km/h 26.9 km/h 33 % 0 mm 357.0 W/m2 CLR
16:33 -2.7 °C -12.6 °C 34384.8 hPa South 20.9 km/h 20.9 km/h 33 % 0 mm 353.0 W/m2 CLR
16:38 -2.8 °C -12.8 °C 34384.8 hPa South 32.8 km/h 32.8 km/h 32 % 0 mm 373.0 W/m2 CLR
16:43 -2.8 °C -12.1 °C 34384.8 hPa South 29.8 km/h 32.3 km/h 35 % 0 mm 352.0 W/m2 CLR
16:48 -3.1 °C -12.1 °C 34384.8 hPa SSE 41.7 km/h 41.7 km/h 36 % 0 mm 334.0 W/m2 CLR
16:53 -3.2 °C -12.2 °C 34384.8 hPa ESE 41.7 km/h 41.7 km/h 36 % 0 mm 325.0 W/m2 CLR
16:58 -3.2 °C -12.3 °C 34384.8 hPa SE 41.4 km/h 41.4 km/h 36 % 0 mm 362.0 W/m2 CLR
17:03 -3.2 °C -12.2 °C 34371.3 hPa SE 29.8 km/h 29.8 km/h 36 % 0 mm 434.0 W/m2 CLR
17:08 -3.1 °C -12.3 °C 34371.3 hPa SE 29.8 km/h 29.8 km/h 35 % 0 mm 668.0 W/m2 CLR
17:13 -3 °C -12.8 °C 34371.3 hPa South 32.8 km/h 32.8 km/h 33 % 0 mm 615.0 W/m2 CLR
17:18 -3 °C -12.3 °C 34371.3 hPa SE 33.6 km/h 33.6 km/h 35 % 0 mm 534.0 W/m2 CLR
17:20 -3.1 °C -12.1 °C 34361.1 hPa SE 49.2 km/h 49.2 km/h 36 % 0 mm 471.0 W/m2 CLR
17:25 -3.2 °C -12.2 °C 34371.3 hPa SE 23.8 km/h 23.8 km/h 36 % 0 mm 469.0 W/m2 CLR
17:30 -3.2 °C -12.4 °C 34361.1 hPa South 23.8 km/h 23.8 km/h 35 % 0 mm 420.0 W/m2 CLR
17:35 -3.2 °C -12.4 °C 34361.1 hPa ESE 35.7 km/h 35.7 km/h 35 % 0 mm 432.0 W/m2 CLR
17:40 -3.2 °C -12.4 °C 34361.1 hPa SE 32.8 km/h 32.8 km/h 35 % 0 mm 388.0 W/m2 CLR
17:45 -3.2 °C -12.4 °C 34361.1 hPa SE 32.8 km/h 32.8 km/h 35 % 0 mm 439.0 W/m2 CLR
17:50 -3.2 °C -12.4 °C 34361.1 hPa SE 29.8 km/h 29.8 km/h 35 % 0 mm 478.0 W/m2 CLR
17:55 -3.1 °C -12.6 °C 34361.1 hPa SE 29.8 km/h 29.8 km/h 34 % 0 mm 417.0 W/m2 CLR
18:00 -3.1 °C -12.6 °C 34361.1 hPa SSE 26.9 km/h 26.9 km/h 34 % 0 mm 448.0 W/m2 CLR
18:05 -2.9 °C -12.4 °C 34361.1 hPa SE 35.7 km/h 35.7 km/h 34 % 0 mm 411.0 W/m2 CLR
18:10 -3 °C -12.6 °C 34361.1 hPa SE 17.9 km/h 17.9 km/h 34 % 0 mm 436.0 W/m2 CLR
18:15 -3 °C -12.3 °C 34361.1 hPa SSE 29.8 km/h 29.8 km/h 35 % 0 mm 434.0 W/m2 CLR
18:20 -2.9 °C -12.3 °C 34361.1 hPa SE 29.8 km/h 29.8 km/h 35 % 0 mm 573.0 W/m2 CLR
18:25 -3 °C -12.3 °C 34347.6 hPa SE 29.8 km/h 29.8 km/h 35 % 0 mm 563.0 W/m2 CLR
18:30 -2.9 °C -12.7 °C 34347.6 hPa SSE 36.2 km/h 36.2 km/h 33 % 0 mm 584.0 W/m2 CLR
18:35 -2.8 °C -13.2 °C 34347.6 hPa SSW 29.8 km/h 29.8 km/h 31 % 0 mm 561.0 W/m2 CLR
18:40 -2.7 °C -12.8 °C 34347.6 hPa SE 20.9 km/h 20.9 km/h 32 % 0 mm 504.0 W/m2 CLR
18:45 -2.8 °C -13.4 °C 34347.6 hPa SSE 32.8 km/h 32.8 km/h 30 % 0 mm 455.0 W/m2 CLR
18:50 -2.9 °C -13.2 °C 34347.6 hPa SE 29.8 km/h 29.8 km/h 31 % 0 mm 380.0 W/m2 CLR
18:55 -3 °C -13 °C 34347.6 hPa SE 23.8 km/h 23.8 km/h 32 % 0 mm 390.0 W/m2 CLR
19:00 -2.9 °C -13.2 °C 34347.6 hPa SSE 23.8 km/h 23.8 km/h 31 % 0 mm 360.0 W/m2 CLR
19:05 -2.9 °C -13.3 °C 34347.6 hPa South 23.8 km/h 23.8 km/h 31 % 0 mm 313.0 W/m2 CLR
19:10 -3 °C -13.3 °C 34347.6 hPa SSE 32.8 km/h 32.8 km/h 31 % 0 mm 292.0 W/m2 CLR
19:15 -3.1 °C -13.1 °C 34347.6 hPa South 23.8 km/h 23.8 km/h 32 % 0 mm 301.0 W/m2 CLR
19:20 -3.2 °C -13.2 °C 34337.4 hPa SSE 29.8 km/h 29.8 km/h 32 % 0 mm 295.0 W/m2 CLR
19:25 -3.3 °C -13.3 °C 34337.4 hPa SSE 35.7 km/h 35.7 km/h 32 % 0 mm 278.0 W/m2 CLR
19:30 -3.4 °C -13.1 °C 34337.4 hPa SSE 35.7 km/h 35.7 km/h 33 % 0 mm 216.0 W/m2 CLR
19:35 -3.4 °C -13.4 °C 34337.4 hPa SSE 29.8 km/h 29.8 km/h 32 % 0 mm 232.0 W/m2 CLR
19:40 -3.4 °C -13.2 °C 34337.4 hPa SE 29.8 km/h 29.8 km/h 33 % 0 mm 207.0 W/m2 CLR
19:45 -3.5 °C -13.2 °C 34337.4 hPa SE 29.8 km/h 29.8 km/h 33 % 0 mm 125.0 W/m2 CLR
19:50 -3.5 °C -13.2 °C 34337.4 hPa SSE 26.9 km/h 26.9 km/h 33 % 0 mm 51.0 W/m2 CLR
19:55 -3.7 °C -13.1 °C 34337.4 hPa ESE 17.9 km/h 17.9 km/h 34 % 0 mm 44.0 W/m2 SCT
20:00 -3.8 °C -13.2 °C 34337.4 hPa SE 23.8 km/h 23.8 km/h 34 % 0 mm 39.0 W/m2 BKN
20:05 -3.8 °C -13.2 °C 34337.4 hPa SE 20.9 km/h 20.9 km/h 34 % 0 mm 35.0 W/m2 BKN
20:10 -3.9 °C -13.1 °C 34337.4 hPa SSE 20.9 km/h 20.9 km/h 35 % 0 mm 32.0 W/m2 BKN
20:15 -3.9 °C -13.3 °C 34337.4 hPa SSE 26.9 km/h 26.9 km/h 34 % 0 mm 46.0 W/m2 SCT
20:20 -3.9 °C -13.1 °C 34337.4 hPa SE 17.9 km/h 17.9 km/h 35 % 0 mm 60.0 W/m2 FEW
20:25 -4 °C -13.2 °C 34337.4 hPa SE 7.7 km/h   35 % 0 mm 28.0 W/m2 BKN
20:30 -4.1 °C -12.8 °C 34337.4 hPa ESE 11.9 km/h 11.9 km/h 37 % 0 mm 25.0 W/m2 BKN
20:35 -4.3 °C -12.4 °C 34337.4 hPa SSE 26.9 km/h 26.9 km/h 40 % 0 mm 21.0 W/m2 BKN
20:40 -4.4 °C -12.3 °C 34337.4 hPa SSE 11.9 km/h 11.9 km/h 41 % 0 mm 19.0 W/m2 BKN
20:46 -4.6 °C -12.4 °C 34337.4 hPa SE 17.9 km/h 17.9 km/h 41 % 0 mm 18.0 W/m2 BKN
20:51 -4.7 °C -12.3 °C 34337.4 hPa SSE 15 km/h 15 km/h 42 % 0 mm 16.0 W/m2 BKN
20:56 -4.8 °C -12.3 °C 34337.4 hPa SE 15 km/h 15 km/h 42 % 0 mm 14.0 W/m2 BKN
21:01 -4.8 °C -12.2 °C 34337.4 hPa SSE 15 km/h 15 km/h 43 % 0 mm 11.0 W/m2 BKN
21:06 -4.9 °C -12.3 °C 34337.4 hPa ESE 15 km/h 15 km/h 43 % 0 mm 7.0 W/m2 BKN
21:11 -5.1 °C -12.2 °C 34337.4 hPa SSE 9 km/h 9 km/h 44 % 0 mm 5.0 W/m2 OVC
21:16 -5.1 °C -12.1 °C 34337.4 hPa ESE 9 km/h 9 km/h 45 % 0 mm 0.0 W/m2 OVC
21:21 -5.2 °C -12.2 °C 34337.4 hPa SE 12.9 km/h 12.9 km/h 45 % 0 mm 0.0 W/m2 OVC
21:26 -5.3 °C -12.1 °C 34337.4 hPa SE 6 km/h   46 % 0 mm 0.0 W/m2 CLR
21:31 -5.4 °C -12.2 °C 34337.4 hPa Calm     46 % 0 mm 0.0 W/m2 CLR
21:36 -5.5 °C -12.1 °C 34337.4 hPa SSE 9 km/h 9 km/h 47 % 0 mm 0.0 W/m2 CLR
21:41 -5.6 °C -12.2 °C 34337.4 hPa Calm     47 % 0 mm 0.0 W/m2 CLR
21:46 -5.7 °C -12.3 °C 34337.4 hPa Calm     47 % 0 mm 0.0 W/m2 CLR
21:51 -5.7 °C -12.1 °C 34347.6 hPa SE 9 km/h 9 km/h 48 % 0 mm 0.0 W/m2 CLR
21:56 -5.8 °C -12.2 °C 34337.4 hPa SE 3.1 km/h 4.2 km/h 48 % 0 mm 0.0 W/m2 CLR
22:01 -5.9 °C -12.2 °C 34337.4 hPa SSE 11.9 km/h 11.9 km/h 48 % 0 mm 0.0 W/m2 CLR
22:06 -5.9 °C -12.3 °C 34337.4 hPa SE 11.9 km/h 11.9 km/h 48 % 0 mm 0.0 W/m2 CLR
22:11 -6 °C -12.2 °C 34347.6 hPa Calm     49 % 0 mm 0.0 W/m2 CLR
22:16 -6.1 °C -12.2 °C 34347.6 hPa SE 9 km/h 9 km/h 49 % 0 mm 0.0 W/m2 CLR
22:21 -6.1 °C -12.3 °C 34347.6 hPa SSE 17.9 km/h 17.9 km/h 49 % 0 mm 0.0 W/m2 CLR
22:26 -6.1 °C -12.3 °C 34347.6 hPa SE 20.9 km/h 20.9 km/h 49 % 0 mm 0.0 W/m2 CLR
22:31 -6.2 °C -12.3 °C 34347.6 hPa South 9 km/h 9 km/h 49 % 0 mm 0.0 W/m2 CLR
22:36 -6.2 °C -12.3 °C 34337.4 hPa South 18.2 km/h 18.2 km/h 49 % 0 mm 0.0 W/m2 CLR
22:41 -6.2 °C -12.3 °C 34337.4 hPa South 15 km/h 15 km/h 49 % 0 mm 0.0 W/m2 CLR
22:46 -6.2 °C -12.5 °C 34347.6 hPa South 15 km/h 15 km/h 48 % 0 mm 0.0 W/m2 CLR
22:51 -6.1 °C -12.6 °C 34347.6 hPa SSW 20.9 km/h 20.9 km/h 47 % 0 mm 0.0 W/m2 CLR
22:56 -6.1 °C -12.6 °C 34347.6 hPa SSE 23.8 km/h 23.8 km/h 47 % 0 mm 0.0 W/m2 CLR
23:01 -6.1 °C -12.7 °C 34337.4 hPa SSE 23.8 km/h 23.8 km/h 46 % 0 mm 0.0 W/m2 CLR
23:06 -6.1 °C -12.7 °C 34337.4 hPa SE 11.9 km/h 11.9 km/h 46 % 0 mm 0.0 W/m2 CLR
23:11 -6.1 °C -12.9 °C 34337.4 hPa Calm     45 % 0 mm 0.0 W/m2 CLR
23:16 -6.1 °C -12.8 °C 34337.4 hPa Calm     46 % 0 mm 0.0 W/m2 CLR
23:21 -6.3 °C -12.8 °C 34337.4 hPa Calm     47 % 0 mm 0.0 W/m2 CLR
23:26 -6.4 °C -12.7 °C 34337.4 hPa Calm     48 % 0 mm 0.0 W/m2 CLR
23:31 -6.6 °C -12.6 °C 34337.4 hPa Calm     50 % 0 mm 0.0 W/m2 CLR
23:36 -6.6 °C -13.1 °C 34337.4 hPa Calm     47 % 0 mm 0.0 W/m2 CLR
23:41 -6.6 °C -13 °C 34337.4 hPa Calm     47 % 0 mm 0.0 W/m2 CLR
23:46 -6.6 °C -13.2 °C 34337.4 hPa Calm     46 % 0 mm 0.0 W/m2 CLR
23:51 -6.5 °C -13.2 °C 34337.4 hPa Calm     46 % 0 mm 0.0 W/m2 CLR
23:56 -6.5 °C -13.3 °C 34337.4 hPa Calm     45 % 0 mm 0.0 W/m2 CLR
Lo Temps de Massalio
Compliments of Weather Underground - 1.25 mb